Time;durP1;ratioP1;P1;durP2;ratioP2;P2;SDS_P1;SDS_P2;PMS_P1;PMS_P2;Temp;Humidity;BMP_temperature;BMP_pressure;BME280_temperature;BME280_humidity;BME280_pressure;Samples;Min_cycle;Max_cycle;Signal;HPM_P1;HPM_P2
2022/05/05 00:02:18;;;;;;;9.90;9.20;;;;;;;14.40;84.92;98831.66;5040707;27;102772;-68
2022/05/05 00:04:46;;;;;;;14.50;13.50;;;;;;;13.66;88.37;98839.75;5039434;27;104038;-68
2022/05/05 00:07:14;;;;;;;14.63;13.47;;;;;;;13.74;89.03;98837.31;5035026;27;103306;-68
2022/05/05 00:09:42;;;;;;;11.57;10.73;;;;;;;14.12;87.51;98837.59;5048375;27;102636;-68
2022/05/05 00:15:07;;;;;;;17.10;15.77;;;;;;;13.45;91.05;98830.88;4992050;27;105198;-69
2022/05/05 00:17:36;;;;;;;20.93;19.33;;;;;;;13.07;93.58;98831.31;5033898;27;103534;-70
2022/05/05 00:20:05;;;;;;;20.45;18.83;;;;;;;12.92;95.38;98828.09;5039156;27;102672;-68
2022/05/05 00:22:33;;;;;;;23.57;21.77;;;;;;;12.49;98.71;98829.81;5036711;27;104323;-68
2022/05/05 00:25:01;;;;;;;27.17;25.08;;;;;;;12.09;100.00;98822.28;5034507;27;104161;-68
2022/05/05 00:27:29;;;;;;;27.40;25.27;;;;;;;12.01;100.00;98819.34;5048325;27;104169;-68
2022/05/05 00:29:57;;;;;;;24.48;22.58;;;;;;;12.58;100.00;98818.47;5027765;27;103264;-67
2022/05/05 00:32:24;;;;;;;18.08;16.77;;;;;;;13.26;97.29;98810.34;5035061;27;103876;-68
2022/05/05 00:34:54;;;;;;;12.05;11.25;;;;;;;13.63;93.50;98819.63;5034953;27;106433;-68
2022/05/05 00:37:22;;;;;;;15.55;14.35;;;;;;;13.85;91.85;98816.88;5038116;27;103184;-68
2022/05/05 00:39:49;;;;;;;13.35;12.45;;;;;;;13.98;90.46;98813.19;5031593;27;103161;-67
2022/05/05 00:42:18;;;;;;;14.82;13.77;;;;;;;14.02;88.92;98817.25;5033575;27;104014;-67
2022/05/05 00:44:46;;;;;;;18.50;17.00;;;;;;;13.71;89.78;98817.16;5036164;27;103023;-68
2022/05/05 00:47:16;;;;;;;16.02;14.82;;;;;;;13.95;89.25;98815.09;5029507;27;103322;-67
2022/05/05 00:49:49;;;;;;;13.93;12.82;;;;;;;14.09;87.40;98816.59;5033590;27;102906;-67
2022/05/05 00:52:19;;;;;;;20.43;18.93;;;;;;;13.39;90.20;98818.16;5037016;27;104060;-67
2022/05/05 00:54:47;;;;;;;18.95;17.55;;;;;;;13.16;94.23;98807.59;5031298;27;104052;-68
2022/05/05 00:57:15;;;;;;;18.55;17.17;;;;;;;13.41;92.96;98810.91;5030123;27;103201;-68
2022/05/05 00:59:44;;;;;;;15.60;14.50;;;;;;;13.83;91.05;98802.03;5034327;27;103572;-67
2022/05/05 01:02:13;;;;;;;12.40;11.50;;;;;;;14.08;89.77;98814.94;5025488;27;104198;-68
2022/05/05 01:04:42;;;;;;;15.52;14.32;;;;;;;14.00;89.33;98817.41;5032863;27;103428;-68
2022/05/05 01:07:10;;;;;;;13.18;12.18;;;;;;;14.14;88.27;98809.09;5034444;27;103247;-67
2022/05/05 01:09:40;;;;;;;14.13;13.02;;;;;;;14.19;87.33;98817.53;5034861;27;102642;-67
2022/05/05 01:12:09;;;;;;;15.07;13.98;;;;;;;14.04;88.29;98816.16;5023501;27;103859;-68
2022/05/05 01:14:37;;;;;;;19.95;18.30;;;;;;;13.60;89.84;98814.56;5035493;27;103675;-68
2022/05/05 01:17:06;;;;;;;21.43;19.77;;;;;;;13.22;93.38;98815.03;5026622;27;103420;-68
2022/05/05 01:19:35;;;;;;;18.88;17.48;;;;;;;13.49;92.02;98821.72;5035167;27;104059;-68
2022/05/05 01:22:06;;;;;;;14.48;13.40;;;;;;;13.82;91.13;98813.63;5036764;27;102643;-67
2022/05/05 01:30:06;;;;;;;19.17;17.67;;;;;;;13.86;88.19;98836.31;5024514;27;102721;-67
2022/05/05 01:32:34;;;;;;;17.02;15.65;;;;;;;13.88;88.48;98834.34;5035539;27;103768;-67
2022/05/05 01:35:02;;;;;;;14.63;13.60;;;;;;;14.01;88.08;98827.03;5031618;27;103959;-67
2022/05/05 01:37:33;;;;;;;12.25;11.35;;;;;;;14.15;87.50;98826.72;5036876;27;103159;-67
2022/05/05 01:40:01;;;;;;;16.55;15.25;;;;;;;14.01;86.00;98832.34;5033913;27;102596;-68
2022/05/05 01:42:32;;;;;;;11.63;10.80;;;;;;;14.17;85.92;98830.09;5034359;27;104319;-67
2022/05/05 01:45:00;;;;;;;10.52;9.82;;;;;;;14.23;85.72;98832.22;5032604;27;104123;-67
2022/05/05 01:47:28;;;;;;;9.77;9.15;;;;;;;14.30;85.11;98827.22;5028784;27;104118;-67
2022/05/05 01:49:58;;;;;;;14.27;13.10;;;;;;;14.18;85.50;98831.75;5034904;27;102763;-67
2022/05/05 01:52:27;;;;;;;13.32;12.30;;;;;;;14.21;85.97;98826.19;5037714;27;102842;-67
2022/05/05 01:54:57;;;;;;;14.70;13.60;;;;;;;14.08;85.88;98822.06;5028347;27;103900;-67
2022/05/05 01:57:24;;;;;;;14.43;13.43;;;;;;;13.88;87.39;98834.34;5033373;27;103257;-68
2022/05/05 01:59:52;;;;;;;12.82;11.95;;;;;;;13.91;87.87;98831.44;5032090;27;102849;-68
2022/05/05 02:02:20;;;;;;;15.60;14.10;;;;;;;13.95;87.01;98822.22;5028038;27;104011;-68
2022/05/05 02:04:50;;;;;;;9.80;9.10;;;;;;;14.12;85.84;98821.66;5038153;27;103284;-68
2022/05/05 02:07:20;;;;;;;9.73;9.02;;;;;;;14.21;84.99;98826.19;5031944;27;103248;-68
2022/05/05 02:09:48;;;;;;;11.27;10.38;;;;;;;14.25;84.09;98822.31;5034675;27;102751;-68
2022/05/05 02:12:18;;;;;;;16.98;15.63;;;;;;;13.56;87.72;98828.22;5029444;27;103856;-68
2022/05/05 02:14:45;;;;;;;14.23;13.13;;;;;;;13.61;88.50;98828.69;5035294;27;104090;-68
2022/05/05 02:17:16;;;;;;;12.75;11.75;;;;;;;13.87;87.05;98822.88;5037417;27;103215;-68
2022/05/05 02:19:44;;;;;;;11.73;10.82;;;;;;;13.95;86.04;98832.84;5037385;27;102780;-67
2022/05/05 02:22:12;;;;;;;13.90;12.90;;;;;;;13.91;85.16;98834.09;5032186;27;104383;-67
2022/05/05 02:24:40;;;;;;;11.82;10.93;;;;;;;13.97;84.88;98825.63;5033838;27;103673;-68
2022/05/05 02:27:09;;;;;;;12.90;12.00;;;;;;;13.89;84.82;98834.22;5035513;27;103077;-67
2022/05/05 02:29:42;;;;;;;13.38;12.38;;;;;;;13.91;84.84;98836.75;5033814;27;102573;-67
2022/05/05 02:32:10;;;;;;;13.60;12.60;;;;;;;13.73;84.64;98841.78;5032139;27;102569;-67
2022/05/05 02:34:38;;;;;;;13.43;12.43;;;;;;;13.77;84.38;98832.59;5035528;27;104047;-67
2022/05/05 02:39:52;;;;;;;14.82;13.52;;;;;;;13.50;85.35;98836.69;5036043;27;102600;-67
2022/05/05 02:42:20;;;;;;;14.45;13.38;;;;;;;13.33;87.71;98830.09;5030230;27;102597;-68
2022/05/05 02:44:50;;;;;;;16.17;14.97;;;;;;;13.17;87.39;98827.84;5035884;27;104245;-67
2022/05/05 02:47:17;;;;;;;12.57;11.68;;;;;;;13.26;88.15;98836.88;5030366;27;103187;-67
2022/05/05 02:49:45;;;;;;;13.45;12.48;;;;;;;13.17;87.85;98837.59;5038148;27;102608;-68
2022/05/05 02:52:13;;;;;;;11.80;10.90;;;;;;;13.49;86.46;98842.97;5034206;27;103824;-68
2022/05/05 02:54:51;;;;;;;12.47;11.57;;;;;;;13.46;85.66;98843.19;5029791;27;104012;-68
2022/05/05 02:57:20;;;;;;;14.20;13.15;;;;;;;12.99;87.11;98839.91;5035959;27;103222;-68
2022/05/05 02:59:49;;;;;;;12.30;11.40;;;;;;;12.98;88.79;98832.91;5027415;27;102728;-68
2022/05/05 03:02:18;;;;;;;7.85;7.35;;;;;;;13.31;86.56;98840.84;5032933;27;102752;-68
2022/05/05 03:04:46;;;;;;;13.27;12.23;;;;;;;13.01;86.61;98835.31;5032666;27;103394;-67
2022/05/05 03:07:15;;;;;;;12.75;11.80;;;;;;;13.00;86.42;98833.63;5034129;27;103213;-68
2022/05/05 03:09:43;;;;;;;15.38;14.18;;;;;;;12.62;87.78;98835.81;5033445;27;102592;-67
2022/05/05 03:12:12;;;;;;;15.27;13.97;;;;;;;12.26;91.01;98836.88;5038958;27;103412;-68
2022/05/05 03:14:40;;;;;;;14.23;13.18;;;;;;;12.43;90.41;98838.22;5035158;27;104340;-68
2022/05/05 03:17:09;;;;;;;16.00;14.80;;;;;;;12.11;91.75;98836.25;5038101;27;103455;-68
2022/05/05 03:19:37;;;;;;;15.25;14.05;;;;;;;12.08;92.38;98836.47;5036699;27;102951;-68
2022/05/05 03:22:05;;;;;;;15.57;14.27;;;;;;;12.15;92.76;98834.22;5036099;27;104029;-68
2022/05/05 03:24:33;;;;;;;16.65;15.25;;;;;;;12.14;92.41;98838.66;5037065;27;103880;-68
2022/05/05 03:27:01;;;;;;;19.50;17.90;;;;;;;11.93;94.93;98836.81;5032226;27;103263;-67
2022/05/05 03:29:29;;;;;;;19.23;17.65;;;;;;;11.92;94.25;98835.94;5032242;27;103775;-68
2022/05/05 03:31:57;;;;;;;18.70;17.20;;;;;;;12.09;94.16;98838.16;5035899;27;103035;-68
2022/05/05 03:34:27;;;;;;;22.08;20.08;;;;;;;11.91;93.91;98844.84;5039225;27;104188;-68
2022/05/05 03:36:57;;;;;;;26.00;23.90;;;;;;;11.47;97.59;98860.50;5030824;27;104195;-68
2022/05/05 03:39:24;;;;;;;22.33;20.50;;;;;;;11.61;98.17;98849.75;5031324;27;102719;-67
2022/05/05 03:41:54;;;;;;;30.73;28.00;;;;;;;11.30;100.00;98842.38;5029992;27;103907;-67
2022/05/05 03:44:22;;;;;;;28.40;26.10;;;;;;;11.28;100.00;98849.59;5009638;27;114052;-67
2022/05/05 03:46:49;;;;;;;21.38;19.65;;;;;;;11.74;100.00;98844.41;5014965;27;103272;-67
2022/05/05 03:49:17;;;;;;;12.70;11.80;;;;;;;12.41;96.80;98848.06;5010865;27;103165;-67
2022/05/05 03:51:46;;;;;;;11.45;10.65;;;;;;;12.71;93.58;98857.16;5017364;27;104170;-67
2022/05/05 03:54:14;;;;;;;11.00;10.20;;;;;;;12.89;91.91;98860.16;5012365;27;103286;-67
2022/05/05 03:56:44;;;;;;;14.05;13.05;;;;;;;12.94;90.25;98859.81;5004683;28;103205;-67
2022/05/05 03:59:11;;;;;;;10.20;9.43;;;;;;;13.03;88.94;98865.19;5015923;27;102646;-67
2022/05/05 04:01:39;;;;;;;19.73;18.00;;;;;;;12.55;89.57;98861.09;5014473;27;103857;-71
2022/05/05 04:04:07;;;;;;;18.67;17.27;;;;;;;12.42;93.13;98868.31;5001669;28;103275;-68
2022/05/05 04:06:35;;;;;;;20.30;18.70;;;;;;;12.04;95.00;98871.25;5017921;28;103245;-68
2022/05/05 04:09:05;;;;;;;24.02;22.13;;;;;;;11.24;100.00;98862.19;4991694;28;102748;-68
2022/05/05 04:11:33;;;;;;;24.52;22.52;;;;;;;11.02;100.00;98864.69;5014475;27;103912;-69
2022/05/05 04:14:01;;;;;;;25.77;23.58;;;;;;;10.97;100.00;98862.38;5013181;27;104591;-70
2022/05/05 04:16:28;;;;;;;26.77;24.27;;;;;;;10.60;100.00;98870.34;4998163;28;104252;-69
2022/05/05 04:18:56;;;;;;;24.08;22.08;;;;;;;10.81;100.00;98872.31;5018517;28;103100;-69
2022/05/05 04:21:26;;;;;;;18.13;16.73;;;;;;;11.35;100.00;98871.97;5013142;27;102616;-68
2022/05/05 04:23:54;;;;;;;21.20;19.42;;;;;;;11.43;100.00;98881.03;5016220;27;103631;-68
2022/05/05 04:26:25;;;;;;;20.48;18.92;;;;;;;11.60;99.56;98872.72;5016590;27;103342;-70
2022/05/05 04:28:56;;;;;;;16.17;14.80;;;;;;;12.04;97.98;98877.38;4989023;27;102708;-70
2022/05/05 04:31:28;;;;;;;18.95;17.42;;;;;;;11.72;97.79;98889.53;5010322;27;103614;-70
2022/05/05 04:33:56;;;;;;;19.55;17.92;;;;;;;11.58;96.73;98889.66;5032674;27;103545;-70
2022/05/05 04:36:24;;;;;;;23.00;21.10;;;;;;;11.08;100.00;98898.63;5015763;27;104176;-70
2022/05/05 04:38:52;;;;;;;21.52;19.83;;;;;;;11.20;100.00;98899.56;5039527;27;102743;-70
2022/05/05 04:41:21;;;;;;;19.60;18.02;;;;;;;11.47;99.56;98905.50;5015645;27;103799;-70
2022/05/05 04:43:50;;;;;;;16.85;15.48;;;;;;;11.73;98.86;98904.47;5037918;27;103218;-69
2022/05/05 04:46:18;;;;;;;12.20;11.32;;;;;;;12.21;96.70;98900.78;5046640;27;103262;-69
2022/05/05 04:48:46;;;;;;;19.13;17.52;;;;;;;11.85;95.42;98902.69;5049928;27;102572;-69
2022/05/05 04:51:14;;;;;;;14.73;13.63;;;;;;;11.92;98.53;98901.28;5048317;27;104077;-69
2022/05/05 04:53:42;;;;;;;17.25;15.80;;;;;;;12.23;94.97;98903.34;5024849;27;104342;-69
2022/05/05 04:56:10;;;;;;;20.05;18.40;;;;;;;11.58;98.21;98908.19;5053887;27;103166;-69
2022/05/05 04:58:38;;;;;;;22.83;21.02;;;;;;;11.12;100.00;98901.88;5052879;27;104638;-70
2022/05/05 05:01:07;;;;;;;21.55;19.75;;;;;;;11.10;100.00;98899.34;5044557;27;102840;-70
2022/05/05 05:03:36;;;;;;;18.83;17.33;;;;;;;11.53;100.00;98897.09;5047203;27;104090;-70
2022/05/05 05:06:05;;;;;;;19.55;17.95;;;;;;;11.24;100.00;98899.22;5045333;27;103273;-70
2022/05/05 05:08:34;;;;;;;18.02;16.60;;;;;;;11.77;99.08;98897.97;5049105;27;102675;-71
2022/05/05 05:11:02;;;;;;;15.77;14.57;;;;;;;12.22;97.48;98901.63;5056307;27;103130;-71
2022/05/05 05:13:30;;;;;;;18.37;16.83;;;;;;;11.73;98.03;98903.63;5056381;27;104324;-71
2022/05/05 05:15:58;;;;;;;21.13;19.33;;;;;;;11.47;98.84;98903.69;5050315;27;103232;-71
2022/05/05 05:18:27;;;;;;;21.40;19.70;;;;;;;11.41;100.00;98904.13;5025440;27;102964;-72
2022/05/05 05:20:55;;;;;;;25.00;22.90;;;;;;;11.10;100.00;98904.63;5027090;27;104048;-71
2022/05/05 05:23:23;;;;;;;21.05;19.23;;;;;;;11.59;100.00;98897.47;5044264;27;103680;-74
2022/05/05 05:25:53;;;;;;;16.00;14.80;;;;;;;12.16;100.00;98908.25;5043901;27;103158;-73
2022/05/05 05:28:21;;;;;;;14.13;13.02;;;;;;;12.70;96.12;98918.22;5035351;27;102655;-74
2022/05/05 05:30:49;;;;;;;15.77;14.52;;;;;;;12.75;93.01;98916.06;5047337;27;103968;-70
2022/05/05 05:33:18;;;;;;;14.15;13.05;;;;;;;12.88;92.91;98916.81;5028662;27;104090;-70
2022/05/05 05:35:47;;;;;;;18.50;17.00;;;;;;;12.72;92.71;98924.25;5045419;27;103212;-70
2022/05/05 05:38:18;;;;;;;20.63;18.95;;;;;;;12.24;96.89;98920.91;5029687;27;102775;-70
2022/05/05 05:40:47;;;;;;;19.88;18.35;;;;;;;12.49;95.16;98928.66;5012324;27;102676;-69
2022/05/05 05:43:15;;;;;;;18.60;17.05;;;;;;;12.61;94.57;98930.38;5024957;27;104723;-69
2022/05/05 05:45:43;;;;;;;13.85;12.82;;;;;;;13.14;93.56;98934.19;5027518;27;103359;-68
2022/05/05 05:48:11;;;;;;;14.77;13.48;;;;;;;13.44;91.23;98935.38;5029877;27;102923;-69
2022/05/05 05:50:39;;;;;;;11.18;10.38;;;;;;;13.71;90.20;98927.84;5030214;27;103974;-69
2022/05/05 05:53:08;;;;;;;13.50;12.43;;;;;;;13.83;88.64;98926.84;5031902;27;103999;-69
2022/05/05 05:55:36;;;;;;;14.70;13.65;;;;;;;13.82;89.07;98928.66;5031492;27;103176;-69
2022/05/05 05:58:04;;;;;;;17.70;16.30;;;;;;;13.25;91.82;98925.38;5033234;27;102971;-69
2022/05/05 06:00:33;;;;;;;18.42;17.02;;;;;;;13.14;92.28;98926.22;5034162;27;104120;-69
2022/05/05 06:05:46;;;;;;;18.80;17.40;;;;;;;13.08;93.00;98924.06;5028461;27;103175;-69
2022/05/05 06:08:17;;;;;;;17.42;15.98;;;;;;;13.39;92.67;98938.38;5030811;27;102805;-69
2022/05/05 06:10:45;;;;;;;17.50;16.10;;;;;;;13.58;91.19;98940.44;5029711;27;104015;-68
2022/05/05 06:13:13;;;;;;;14.60;13.50;;;;;;;13.95;90.12;98949.72;5035573;27;103430;-68
2022/05/05 06:15:41;;;;;;;16.13;14.83;;;;;;;13.79;91.32;98942.19;5032358;27;103557;-68
2022/05/05 06:18:09;;;;;;;16.27;15.07;;;;;;;13.82;90.14;98946.38;5032428;27;102720;-68
2022/05/05 06:20:37;;;;;;;13.15;12.15;;;;;;;14.32;89.11;98951.06;5023362;27;102799;-68
2022/05/05 06:23:05;;;;;;;14.45;13.25;;;;;;;14.57;87.18;98949.00;5034066;27;104304;-68
2022/05/05 06:25:34;;;;;;;15.55;14.02;;;;;;;14.76;86.46;98954.44;5031496;27;103285;-68
2022/05/05 06:28:04;;;;;;;14.75;13.52;;;;;;;14.83;84.77;98959.09;5031600;27;102653;-68
2022/05/05 06:30:32;;;;;;;12.93;11.93;;;;;;;14.91;85.52;98961.09;5030296;27;102860;-68
2022/05/05 06:33:02;;;;;;;14.45;13.35;;;;;;;14.91;84.33;98963.75;5034577;27;103993;-68
2022/05/05 06:35:30;;;;;;;12.80;11.80;;;;;;;15.03;83.77;98962.72;5027037;27;103548;-68
2022/05/05 06:37:57;;;;;;;14.80;13.60;;;;;;;15.02;82.80;98966.34;5032581;27;102688;-68
2022/05/05 06:40:25;;;;;;;16.90;15.50;;;;;;;14.59;84.55;98973.66;5031776;27;104100;-68
2022/05/05 06:42:56;;;;;;;19.60;17.80;;;;;;;14.13;87.66;98972.13;5024298;27;103268;-68
2022/05/05 06:45:24;;;;;;;20.33;18.50;;;;;;;13.67;92.61;98968.88;5034251;27;103322;-68
2022/05/05 06:47:54;;;;;;;16.30;15.00;;;;;;;14.14;89.49;98981.78;5033001;27;103012;-68
2022/05/05 06:50:22;;;;;;;15.05;13.85;;;;;;;14.62;86.72;98970.72;5036860;27;103261;-68
2022/05/05 06:52:50;;;;;;;16.25;15.00;;;;;;;14.63;85.72;98983.03;5036108;27;104014;-68
2022/05/05 06:55:19;;;;;;;20.13;18.52;;;;;;;14.15;88.33;98983.47;5035762;27;103160;-68
2022/05/05 06:57:47;;;;;;;17.55;16.15;;;;;;;14.25;89.28;98981.75;5035490;27;102600;-68
2022/05/05 07:00:17;;;;;;;13.60;12.50;;;;;;;14.86;86.88;98982.78;5032610;27;102802;-68
2022/05/05 07:02:44;;;;;;;12.93;11.83;;;;;;;15.16;84.94;98973.97;5033134;27;104082;-68
2022/05/05 07:05:24;;;;;;;12.63;11.70;;;;;;;15.34;84.30;98984.84;5029491;27;103259;-68
2022/05/05 07:07:52;;;;;;;14.13;13.02;;;;;;;15.37;83.21;98982.78;5013642;27;102728;-68
2022/05/05 07:13:06;;;;;;;15.57;14.17;;;;;;;14.91;84.81;98990.34;5013515;28;104682;-69
2022/05/05 07:15:37;;;;;;;12.38;11.48;;;;;;;15.25;83.84;98993.63;4991615;28;103234;-68
2022/05/05 07:18:05;;;;;;;14.02;12.95;;;;;;;15.36;84.11;98996.19;5014127;28;102580;-68
2022/05/05 07:20:34;;;;;;;13.03;11.93;;;;;;;14.71;86.38;99004.53;5011457;28;104167;-68
2022/05/05 07:23:02;;;;;;;11.05;10.15;;;;;;;14.88;85.19;99003.91;5005303;28;103302;-68
2022/05/05 07:25:29;;;;;;;8.68;8.07;;;;;;;15.33;82.92;99004.44;5006900;28;103212;-68
2022/05/05 07:27:57;;;;;;;10.90;10.00;;;;;;;15.43;80.75;99002.69;5016483;28;103008;-68
2022/05/05 07:30:25;;;;;;;10.57;9.73;;;;;;;15.49;81.51;99003.03;5009721;28;104159;-68
2022/05/05 07:32:55;;;;;;;9.67;8.97;;;;;;;15.52;81.94;98996.59;5014347;28;104319;-69
2022/05/05 07:35:22;;;;;;;9.73;8.83;;;;;;;15.68;79.54;98996.94;5013438;28;103170;-69
2022/05/05 07:37:52;;;;;;;9.27;8.37;;;;;;;15.68;81.25;99009.41;5009388;28;102770;-68
2022/05/05 07:40:20;;;;;;;10.65;9.85;;;;;;;15.68;81.05;99001.41;5011631;28;103778;-68
2022/05/05 07:42:48;;;;;;;9.57;8.88;;;;;;;15.83;80.34;98995.53;5014151;28;104022;-68
2022/05/05 07:45:16;;;;;;;9.05;8.25;;;;;;;15.98;79.15;98999.53;5002680;28;103328;-68
2022/05/05 07:47:44;;;;;;;10.88;10.00;;;;;;;15.52;79.50;98997.41;5012482;28;102607;-69
2022/05/05 07:50:14;;;;;;;10.60;9.80;;;;;;;15.74;82.17;99001.72;4990043;28;103960;-68
2022/05/05 07:52:42;;;;;;;11.27;10.38;;;;;;;15.74;82.21;99000.88;4992651;28;104089;-68
2022/05/05 07:55:10;;;;;;;10.32;9.32;;;;;;;16.09;80.02;99001.22;5012084;28;103183;-70
2022/05/05 07:57:46;;;;;;;11.10;10.20;;;;;;;15.42;81.15;99007.16;4996454;28;102754;-69
2022/05/05 08:00:15;;;;;;;11.80;10.77;;;;;;;15.50;80.98;99009.19;5017019;28;104457;-69
2022/05/05 08:02:43;;;;;;;9.60;8.90;;;;;;;15.44;81.84;99004.34;5005684;28;103586;-69
2022/05/05 08:05:12;;;;;;;14.30;12.90;;;;;;;15.04;81.68;99007.81;5013872;28;103324;-69
2022/05/05 08:07:48;;;;;;;13.02;11.88;;;;;;;15.26;81.65;99014.81;5010945;28;102774;-70
2022/05/05 08:10:17;;;;;;;13.65;12.52;;;;;;;15.07;81.51;99017.38;5007816;28;103412;-70
2022/05/05 08:12:46;;;;;;;13.55;12.45;;;;;;;15.23;81.07;99019.53;5011720;28;104391;-70
2022/05/05 08:15:16;;;;;;;13.40;12.30;;;;;;;15.43;80.02;99019.50;4996676;28;104361;-69
2022/05/05 08:17:44;;;;;;;12.63;11.52;;;;;;;15.50;79.48;99023.34;5003785;28;102733;-69
2022/05/05 08:20:13;;;;;;;12.70;11.63;;;;;;;15.22;80.26;99023.16;4991249;28;104093;-70
2022/05/05 08:22:41;;;;;;;11.27;10.30;;;;;;;15.70;79.43;99023.41;5013143;28;103900;-69
2022/05/05 08:30:44;;;;;;;15.57;14.20;;;;;;;15.84;77.42;99034.53;5019818;28;103990;-70
2022/05/05 08:33:11;;;;;;;13.77;12.60;;;;;;;15.74;78.87;99035.50;5013471;28;103277;-69
2022/05/05 08:35:41;;;;;;;14.30;13.00;;;;;;;15.49;81.29;99037.66;5012851;28;103173;-70
2022/05/05 08:38:13;;;;;;;13.68;12.52;;;;;;;15.93;79.13;99035.56;5002432;28;102867;-70
2022/05/05 08:40:42;;;;;;;16.85;15.43;;;;;;;15.70;79.68;99039.38;5011680;28;104220;-69
2022/05/05 08:43:10;;;;;;;15.30;14.10;;;;;;;15.95;78.67;99037.09;4985998;28;104053;-70
2022/05/05 08:45:39;;;;;;;17.70;16.30;;;;;;;15.32;80.82;99038.25;5014485;28;103232;-70
2022/05/05 08:48:09;;;;;;;16.60;15.20;;;;;;;15.90;78.07;99033.16;5014489;28;103410;-69
2022/05/05 08:50:37;;;;;;;15.95;14.50;;;;;;;15.80;78.31;99042.94;5007430;28;103840;-69
2022/05/05 08:53:07;;;;;;;16.17;14.83;;;;;;;15.60;77.70;99045.53;4991537;28;103318;-69
2022/05/05 08:55:37;;;;;;;15.20;13.93;;;;;;;16.14;77.56;99049.63;5011378;28;103190;-69
2022/05/05 08:58:06;;;;;;;14.77;13.52;;;;;;;16.54;75.90;99049.56;4994644;28;102850;-69
2022/05/05 09:00:34;;;;;;;16.20;14.80;;;;;;;16.18;77.48;99051.03;5005479;28;103790;-70
2022/05/05 09:03:04;;;;;;;17.27;15.68;;;;;;;15.76;76.58;99054.84;5010331;28;103239;-70
2022/05/05 09:05:47;;;;;;;13.65;12.55;;;;;;;16.52;75.09;99055.00;5007414;28;103277;-70
2022/05/05 09:08:27;;;;;;;13.52;12.38;;;;;;;17.10;73.47;99053.16;5013541;28;102676;-71
2022/05/05 09:10:57;;;;;;;15.07;13.82;;;;;;;16.82;73.61;99059.38;5010051;28;103841;-70
2022/05/05 09:13:29;;;;;;;14.82;13.55;;;;;;;17.01;72.58;99053.22;5014942;28;103689;-72
2022/05/05 09:15:57;;;;;;;16.50;15.18;;;;;;;16.01;74.46;99057.03;5009047;28;103202;-71
2022/05/05 09:18:30;;;;;;;16.17;14.77;;;;;;;16.44;73.43;99054.03;5015639;28;102603;-71
2022/05/05 09:21:01;;;;;;;15.07;13.73;;;;;;;16.85;72.91;99060.91;5020413;28;104024;-71
2022/05/05 09:23:34;;;;;;;16.42;15.05;;;;;;;16.72;72.41;99063.91;4997515;28;103834;-71
2022/05/05 09:26:04;;;;;;;19.77;17.98;;;;;;;15.47;75.65;99073.34;4983791;28;103290;-71
2022/05/05 09:28:35;;;;;;;17.70;16.10;;;;;;;16.13;74.59;99066.59;5014051;28;103069;-72
2022/05/05 09:31:08;;;;;;;14.37;13.07;;;;;;;17.17;72.29;99064.13;4998157;28;102723;-71
2022/05/05 09:33:41;;;;;;;17.50;16.00;;;;;;;17.09;72.16;99072.88;5002647;28;103826;-71
2022/05/05 09:36:10;;;;;;;16.95;15.55;;;;;;;17.12;71.27;99074.41;5004783;28;103240;-71
2022/05/05 09:38:55;;;;;;;18.83;17.23;;;;;;;16.57;71.95;99071.47;4978124;28;102797;-71
2022/05/05 09:41:24;;;;;;;17.17;15.88;;;;;;;16.55;75.01;99073.44;5010132;28;102729;-71
2022/05/05 09:43:57;;;;;;;16.52;15.23;;;;;;;17.10;72.83;99073.69;4985346;28;103624;-72
2022/05/05 09:46:33;;;;;;;19.23;17.53;;;;;;;16.76;74.01;99076.81;5003873;28;103513;-71
2022/05/05 09:49:10;;;;;;;19.30;17.70;;;;;;;16.54;72.42;99066.41;5004289;28;102664;-72
2022/05/05 09:51:43;;;;;;;15.40;14.20;;;;;;;17.46;71.13;99074.75;5003160;28;103707;-70
2022/05/05 09:59:49;;;;;;;17.30;15.98;;;;;;;17.04;72.52;99068.94;5001079;28;102713;-70
2022/05/05 10:05:11;;;;;;;18.00;16.60;;;;;;;17.23;71.11;99074.25;4999515;28;103920;-70
2022/05/05 10:07:44;;;;;;;17.25;15.65;;;;;;;17.49;69.14;99069.94;5013194;28;102972;-72
2022/05/05 10:10:14;;;;;;;18.27;16.75;;;;;;;17.41;69.85;99083.19;4991998;28;102786;-71
2022/05/05 10:12:42;;;;;;;15.27;14.02;;;;;;;18.17;68.35;99070.50;5004837;28;102689;-71
2022/05/05 10:15:13;;;;;;;14.10;13.00;;;;;;;18.30;67.80;99079.84;5010564;28;103282;-71
2022/05/05 10:17:41;;;;;;;16.95;15.35;;;;;;;18.21;67.01;99082.59;5012930;28;103206;-72
2022/05/05 10:20:13;;;;;;;18.33;16.73;;;;;;;17.80;68.35;99076.75;5007179;27;102633;-71
2022/05/05 10:22:51;;;;;;;14.93;13.73;;;;;;;18.28;68.01;99075.66;5005698;28;102717;-71
2022/05/05 10:25:26;;;;;;;16.33;14.82;;;;;;;18.64;67.15;99079.25;4991356;28;104160;-71
2022/05/05 10:27:56;;;;;;;17.95;16.45;;;;;;;18.52;66.29;99068.78;5004140;28;103869;-71
2022/05/05 10:30:36;;;;;;;19.03;17.53;;;;;;;17.32;68.83;99074.19;5000946;28;102825;-71
2022/05/05 10:33:08;;;;;;;21.53;19.73;;;;;;;16.74;70.54;99073.44;4982497;28;104246;-74
2022/05/05 10:35:47;;;;;;;19.45;17.83;;;;;;;17.64;69.91;99073.88;4997136;28;103305;-71
2022/05/05 10:38:39;;;;;;;19.42;17.92;;;;;;;18.44;67.95;99073.19;4992034;28;104145;-71
2022/05/05 10:41:39;;;;;;;18.92;17.23;;;;;;;18.59;66.37;99069.00;5008228;27;102652;-71
2022/05/05 10:44:25;;;;;;;19.00;17.40;;;;;;;18.46;65.44;99063.16;5028922;27;102927;-71
2022/05/05 10:46:56;;;;;;;21.13;19.25;;;;;;;17.91;67.26;99065.88;5028865;27;103231;-70
2022/05/05 10:49:44;;;;;;;21.13;19.43;;;;;;;17.87;68.01;99067.16;5028753;27;103288;-70
2022/05/05 10:52:31;;;;;;;22.73;20.90;;;;;;;16.79;70.65;99071.19;5027655;27;102578;-72
2022/05/05 10:55:23;;;;;;;18.80;17.30;;;;;;;17.77;69.58;99069.03;5027180;27;102740;-71
2022/05/05 10:58:11;;;;;;;24.50;22.40;;;;;;;17.75;72.93;99071.00;5022003;27;104129;-71
2022/05/05 11:00:44;;;;;;;20.52;18.90;;;;;;;18.29;69.04;99058.63;5028063;27;103303;-71
2022/05/05 11:03:19;;;;;;;21.88;20.13;;;;;;;17.19;71.12;99068.34;5028733;27;102806;-71
2022/05/05 11:05:47;;;;;;;18.63;17.17;;;;;;;17.42;71.73;99063.50;5028630;27;104059;-72
2022/05/05 11:08:35;;;;;;;24.15;22.05;;;;;;;17.45;71.64;99063.22;5027547;27;103229;-72
2022/05/05 11:21:31;;;;;;;26.70;24.20;;;;;;;17.66;69.09;99065.69;5026997;27;103730;-73
2022/05/05 11:22:32;;;;;;;20.88;18.98;;;;;;;17.37;71.49;99074.59;5048178;27;104259;-73
2022/05/05 11:25:02;;;;;;;20.95;19.23;;;;;;;17.68;70.37;99077.09;5032290;27;103179;-73
2022/05/05 11:27:30;;;;;;;23.63;21.73;;;;;;;17.36;71.20;99075.59;5033006;27;104261;-73
2022/05/05 11:29:59;;;;;;;23.42;21.55;;;;;;;17.15;72.44;99076.78;5030807;27;103832;-70
2022/05/05 11:32:30;;;;;;;24.58;22.55;;;;;;;17.36;72.58;99085.44;5034797;27;103198;-70
2022/05/05 11:35:00;;;;;;;28.27;25.63;;;;;;;16.56;75.83;99077.78;5026515;27;104192;-69
2022/05/05 11:37:29;;;;;;;28.85;26.10;;;;;;;16.75;75.33;99076.97;5036499;27;103616;-69
2022/05/05 11:40:02;;;;;;;27.90;25.50;;;;;;;16.92;75.85;99076.25;5031231;27;104201;-69
2022/05/05 11:44:14;;;;;;;27.67;25.33;;;;;;;17.11;76.84;99070.03;5032554;27;103928;-69
2022/05/05 11:45:16;;;;;;;30.35;27.77;;;;;;;16.17;79.40;99074.19;5026872;27;102590;-69
2022/05/05 11:47:44;;;;;;;29.40;26.83;;;;;;;16.51;78.02;99074.66;5026747;27;103081;-69
2022/05/05 11:50:14;;;;;;;28.90;26.35;;;;;;;15.68;80.98;99073.31;5011478;27;104306;-71
2022/05/05 11:52:42;;;;;;;26.88;24.63;;;;;;;16.61;78.52;99067.56;5020027;27;104247;-68
2022/05/05 11:55:11;;;;;;;27.30;25.00;;;;;;;17.00;75.50;99062.19;5023829;27;102754;-69
2022/05/05 11:57:40;;;;;;;27.70;25.40;;;;;;;16.64;77.28;99061.94;5023052;27;102905;-69
2022/05/05 12:02:58;;;;;;;33.20;30.40;;;;;;;15.96;80.17;99065.44;5025674;27;103693;-70
2022/05/05 12:05:29;;;;;;;34.10;31.23;;;;;;;16.12;81.09;99060.41;5026302;27;103106;-70